Time;durP1;ratioP1;P1;durP2;ratioP2;P2;SDS_P1;SDS_P2;PMS_P1;PMS_P2;Temp;Humidity;BMP_temperature;BMP_pressure;BME280_temperature;BME280_humidity;BME280_pressure;Samples;Min_cycle;Max_cycle;Signal;HPM_P1;HPM_P2
2021/11/26 00:01:33;;;;;;;21.58;9.30;;;7.20;84.90;;;;;;5016862;28;20033;-74
2021/11/26 00:04:00;;;;;;;21.40;10.77;;;7.20;84.60;;;;;;5014776;28;20787;-75
2021/11/26 00:06:31;;;;;;;24.77;10.00;;;7.30;84.60;;;;;;5014609;28;20040;-75
2021/11/26 00:08:57;;;;;;;22.50;11.32;;;7.30;84.20;;;;;;5020760;28;20030;-75
2021/11/26 00:11:24;;;;;;;22.65;9.85;;;7.30;84.00;;;;;;5019338;28;20033;-79
2021/11/26 00:14:01;;;;;;;29.92;11.82;;;7.40;84.30;;;;;;5016684;28;20149;-77
2021/11/26 00:16:33;;;;;;;19.48;10.60;;;7.40;84.20;;;;;;5009839;28;20030;-74
2021/11/26 00:19:04;;;;;;;21.67;9.63;;;7.40;84.20;;;;;;5019398;28;20130;-74
2021/11/26 00:21:30;;;;;;;21.17;10.38;;;7.40;84.00;;;;;;5019869;28;20041;-74
2021/11/26 00:23:56;;;;;;;19.20;10.15;;;7.40;83.90;;;;;;5016894;28;20026;-75
2021/11/26 00:26:22;;;;;;;20.05;11.02;;;7.50;84.00;;;;;;5015291;28;20401;-74
2021/11/26 00:28:48;;;;;;;24.80;9.18;;;7.50;83.30;;;;;;5018557;28;20104;-74
2021/11/26 00:31:14;;;;;;;22.35;9.15;;;7.40;83.80;;;;;;5024518;28;20512;-74
2021/11/26 00:33:39;;;;;;;30.33;10.40;;;7.40;83.90;;;;;;5022521;28;20048;-74
2021/11/26 00:36:05;;;;;;;23.83;10.13;;;7.40;83.80;;;;;;5021201;28;20034;-74
2021/11/26 00:38:31;;;;;;;21.10;10.25;;;7.50;83.60;;;;;;5033840;28;20041;-74
2021/11/26 00:40:57;;;;;;;17.55;8.25;;;7.50;83.40;;;;;;5016738;28;20084;-74
2021/11/26 00:43:23;;;;;;;20.33;9.32;;;7.50;83.50;;;;;;5020515;28;20021;-74
2021/11/26 00:45:49;;;;;;;19.13;10.18;;;7.50;84.00;;;;;;5025451;28;20052;-74
2021/11/26 00:48:15;;;;;;;19.83;9.40;;;7.50;83.30;;;;;;5023550;28;20036;-74
2021/11/26 00:50:43;;;;;;;17.80;9.55;;;7.50;83.00;;;;;;5019205;28;20030;-74
2021/11/26 00:53:09;;;;;;;19.25;9.20;;;7.50;82.80;;;;;;5017097;28;20440;-75
2021/11/26 00:55:34;;;;;;;19.33;9.23;;;7.60;83.00;;;;;;5020386;28;20036;-73
2021/11/26 00:58:00;;;;;;;22.30;10.00;;;7.50;82.90;;;;;;5019512;28;20041;-75
2021/11/26 01:00:27;;;;;;;20.42;9.38;;;7.50;82.80;;;;;;5020983;28;20025;-74
2021/11/26 01:02:53;;;;;;;24.05;10.73;;;7.50;83.00;;;;;;5017249;28;20476;-73
2021/11/26 01:05:19;;;;;;;19.42;10.27;;;7.40;82.90;;;;;;5017904;28;20192;-72
2021/11/26 01:07:45;;;;;;;20.95;9.52;;;7.30;83.20;;;;;;5027459;28;20041;-74
2021/11/26 01:10:15;;;;;;;21.80;11.57;;;7.30;83.40;;;;;;5023282;28;20021;-74
2021/11/26 01:12:42;;;;;;;23.48;10.25;;;7.40;83.40;;;;;;5007304;28;20047;-77
2021/11/26 01:15:10;;;;;;;25.88;11.15;;;7.30;83.60;;;;;;5021901;28;20044;-73
2021/11/26 01:17:41;;;;;;;24.77;10.95;;;7.40;83.70;;;;;;5017448;28;20064;-73
2021/11/26 01:20:09;;;;;;;24.17;11.20;;;7.40;83.70;;;;;;5023839;28;20051;-73
2021/11/26 01:22:35;;;;;;;20.88;11.32;;;7.40;83.70;;;;;;5021657;28;20060;-73
2021/11/26 01:25:01;;;;;;;31.20;13.02;;;7.40;83.40;;;;;;5018594;28;20065;-74
2021/11/26 01:27:27;;;;;;;22.38;11.73;;;7.40;83.00;;;;;;5015933;28;20049;-73
2021/11/26 01:29:53;;;;;;;19.83;10.27;;;7.40;83.10;;;;;;5021632;28;20475;-73
2021/11/26 01:32:18;;;;;;;27.98;12.48;;;7.40;83.50;;;;;;5036670;28;20083;-73
2021/11/26 01:34:44;;;;;;;25.58;11.23;;;7.30;83.40;;;;;;5021117;28;20052;-72
2021/11/26 01:37:10;;;;;;;25.02;12.55;;;7.30;83.40;;;;;;5018607;28;20132;-74
2021/11/26 01:39:36;;;;;;;21.75;12.55;;;7.30;83.90;;;;;;5017804;28;20030;-73
2021/11/26 01:42:02;;;;;;;27.17;12.65;;;7.30;83.50;;;;;;5022872;28;20390;-75
2021/11/26 01:44:28;;;;;;;25.60;12.63;;;7.30;83.50;;;;;;5021596;28;20033;-73
2021/11/26 01:46:54;;;;;;;23.67;12.40;;;7.40;83.20;;;;;;5018409;28;20030;-74
2021/11/26 01:49:20;;;;;;;25.52;11.88;;;7.30;83.10;;;;;;5018151;28;20811;-74
2021/11/26 01:51:46;;;;;;;28.17;14.20;;;7.30;83.30;;;;;;5013327;28;20026;-73
2021/11/26 01:54:12;;;;;;;27.75;11.35;;;7.40;83.60;;;;;;5022899;28;20748;-74
2021/11/26 01:56:39;;;;;;;24.85;10.48;;;7.40;83.60;;;;;;5020231;28;20036;-74
2021/11/26 01:59:05;;;;;;;24.10;11.15;;;7.50;83.50;;;;;;5018865;28;20034;-73
2021/11/26 02:01:31;;;;;;;25.70;11.85;;;7.50;83.70;;;;;;5015435;28;20033;-72
2021/11/26 02:03:57;;;;;;;23.30;9.90;;;7.40;82.90;;;;;;5018517;28;20029;-73
2021/11/26 02:06:23;;;;;;;23.25;10.90;;;7.40;83.00;;;;;;5021938;28;20041;-74
2021/11/26 02:08:50;;;;;;;22.25;10.23;;;7.40;83.40;;;;;;5022175;28;20038;-74
2021/11/26 02:11:17;;;;;;;22.25;9.38;;;7.40;83.40;;;;;;5019059;28;20038;-73
2021/11/26 02:13:43;;;;;;;22.85;11.02;;;7.30;83.10;;;;;;5012978;28;20038;-75
2021/11/26 02:16:10;;;;;;;19.08;10.70;;;7.40;83.40;;;;;;5019894;28;20082;-73
2021/11/26 02:18:36;;;;;;;18.90;10.40;;;7.40;83.50;;;;;;5021841;28;20032;-73
2021/11/26 02:21:02;;;;;;;25.35;10.25;;;7.50;83.30;;;;;;5018182;28;20037;-70
2021/11/26 02:23:28;;;;;;;25.13;10.43;;;7.50;83.10;;;;;;5016665;28;20029;-75
2021/11/26 02:25:55;;;;;;;19.65;10.05;;;7.50;82.60;;;;;;5014854;28;20402;-74
2021/11/26 02:28:21;;;;;;;25.42;10.73;;;7.50;82.70;;;;;;5023495;28;20037;-75
2021/11/26 02:30:48;;;;;;;22.02;9.88;;;7.50;83.00;;;;;;5034792;28;20063;-74
2021/11/26 02:33:17;;;;;;;29.52;10.40;;;7.60;83.10;;;;;;5020687;28;20752;-75
2021/11/26 02:35:47;;;;;;;22.60;10.57;;;7.60;83.10;;;;;;5014276;28;20771;-75
2021/11/26 02:38:13;;;;;;;23.70;10.20;;;7.60;82.90;;;;;;5016521;28;20041;-75
2021/11/26 02:40:43;;;;;;;24.08;11.07;;;7.60;83.10;;;;;;5021723;28;20040;-75
2021/11/26 02:43:10;;;;;;;17.30;8.57;;;7.60;83.30;;;;;;5015605;28;20026;-75
2021/11/26 02:45:36;;;;;;;24.45;10.68;;;7.60;83.70;;;;;;5018893;28;20151;-75
2021/11/26 02:48:02;;;;;;;24.75;10.77;;;7.60;83.00;;;;;;5016459;28;20075;-75
2021/11/26 02:50:29;;;;;;;25.02;9.68;;;7.50;83.20;;;;;;5016210;28;20037;-74
2021/11/26 02:52:56;;;;;;;26.75;10.68;;;7.60;83.20;;;;;;5020653;28;20037;-75
2021/11/26 02:55:24;;;;;;;22.42;10.52;;;7.50;83.00;;;;;;5023490;28;20079;-74
2021/11/26 02:57:51;;;;;;;25.83;10.55;;;7.50;83.60;;;;;;5018744;28;20482;-75
2021/11/26 03:00:20;;;;;;;23.20;10.40;;;7.50;83.80;;;;;;5016272;28;20030;-74
2021/11/26 03:02:46;;;;;;;23.48;10.07;;;7.50;83.60;;;;;;5021733;28;20575;-75
2021/11/26 03:05:12;;;;;;;27.10;9.98;;;7.50;83.70;;;;;;5020722;28;20060;-75
2021/11/26 03:07:39;;;;;;;29.38;11.88;;;7.60;83.80;;;;;;5018129;28;20611;-75
2021/11/26 03:10:07;;;;;;;20.00;9.77;;;7.60;83.40;;;;;;5017711;28;20030;-75
2021/11/26 03:12:34;;;;;;;28.77;11.15;;;7.60;83.30;;;;;;5013028;28;20695;-74
2021/11/26 03:15:00;;;;;;;24.40;10.43;;;7.60;83.40;;;;;;5021636;28;20034;-75
2021/11/26 03:17:26;;;;;;;25.00;10.57;;;7.60;83.70;;;;;;5021340;28;20052;-75
2021/11/26 03:19:53;;;;;;;20.90;9.68;;;7.60;83.90;;;;;;5020451;28;20049;-75
2021/11/26 03:22:19;;;;;;;21.20;9.60;;;7.60;83.50;;;;;;5017084;28;20029;-75
2021/11/26 03:24:45;;;;;;;25.95;10.18;;;7.60;83.50;;;;;;5031390;28;20025;-74
2021/11/26 03:27:10;;;;;;;21.65;10.10;;;7.60;83.50;;;;;;5021136;28;20018;-74
2021/11/26 03:29:36;;;;;;;20.20;8.55;;;7.60;83.70;;;;;;5020073;28;20053;-73
2021/11/26 03:32:03;;;;;;;21.42;9.60;;;7.50;83.80;;;;;;5017695;28;20435;-74
2021/11/26 03:34:28;;;;;;;24.30;9.10;;;7.60;83.80;;;;;;5011915;28;20040;-74
2021/11/26 03:36:54;;;;;;;21.77;8.82;;;7.60;83.50;;;;;;5020250;28;20029;-74
2021/11/26 03:39:20;;;;;;;20.73;10.13;;;7.60;83.60;;;;;;5021510;28;20029;-74
2021/11/26 03:41:46;;;;;;;18.90;8.95;;;7.60;83.40;;;;;;5014048;28;20034;-74
2021/11/26 03:44:12;;;;;;;21.85;8.35;;;7.50;83.30;;;;;;5017530;28;20109;-75
2021/11/26 03:46:38;;;;;;;26.00;9.02;;;7.50;83.30;;;;;;5016514;28;20029;-74
2021/11/26 03:49:04;;;;;;;25.77;9.60;;;7.50;83.20;;;;;;5022219;28;20071;-74
2021/11/26 03:51:32;;;;;;;16.02;7.30;;;7.50;83.40;;;;;;5020762;28;20868;-75
2021/11/26 03:53:58;;;;;;;20.17;8.43;;;7.50;83.40;;;;;;5019912;28;20041;-74
2021/11/26 03:56:24;;;;;;;18.90;8.30;;;7.50;83.40;;;;;;5016536;28;20026;-75
2021/11/26 03:58:49;;;;;;;20.05;8.50;;;7.50;83.00;;;;;;5028354;28;20137;-74
2021/11/26 04:01:15;;;;;;;21.05;7.07;;;7.60;83.00;;;;;;5022333;28;20063;-75
2021/11/26 04:03:41;;;;;;;15.55;7.57;;;7.60;82.90;;;;;;5027988;28;20021;-75
2021/11/26 04:06:07;;;;;;;16.55;7.18;;;7.60;83.00;;;;;;5025562;28;20480;-74
2021/11/26 04:08:33;;;;;;;21.70;8.55;;;7.50;82.90;;;;;;5024700;28;20101;-74
2021/11/26 04:10:59;;;;;;;19.33;8.45;;;7.60;83.00;;;;;;5024407;28;20786;-74
2021/11/26 04:13:25;;;;;;;23.15;9.10;;;7.60;83.00;;;;;;5028247;28;20037;-75
2021/11/26 04:15:52;;;;;;;20.02;8.80;;;7.60;83.00;;;;;;5024958;28;20523;-75
2021/11/26 04:18:17;;;;;;;24.92;9.25;;;7.60;82.90;;;;;;5027074;28;20087;-74
2021/11/26 04:20:45;;;;;;;20.52;8.90;;;7.60;83.00;;;;;;5019634;28;20778;-74
2021/11/26 04:23:12;;;;;;;24.05;8.73;;;7.60;83.00;;;;;;5021618;28;20044;-74
2021/11/26 04:25:38;;;;;;;18.92;8.27;;;7.50;83.40;;;;;;5026785;28;20110;-74
2021/11/26 04:28:04;;;;;;;23.80;9.20;;;7.60;83.50;;;;;;5025467;28;20026;-74
2021/11/26 04:30:31;;;;;;;22.63;8.90;;;7.60;83.60;;;;;;5022679;28;20083;-75
2021/11/26 04:32:58;;;;;;;22.48;9.27;;;7.60;83.50;;;;;;5026373;28;20049;-75
2021/11/26 04:35:25;;;;;;;27.80;10.40;;;7.60;83.50;;;;;;5026082;28;20100;-74
2021/11/26 04:37:51;;;;;;;20.10;9.68;;;7.60;83.90;;;;;;5025697;28;20049;-74
2021/11/26 04:40:17;;;;;;;25.80;10.23;;;7.50;83.50;;;;;;5025288;28;20025;-74
2021/11/26 04:42:45;;;;;;;23.80;10.45;;;7.50;83.60;;;;;;5025428;28;20113;-74
2021/11/26 04:45:13;;;;;;;21.65;9.65;;;7.40;84.40;;;;;;5026096;28;20207;-74
2021/11/26 04:47:39;;;;;;;17.67;8.25;;;7.40;84.80;;;;;;5027556;28;20033;-74
2021/11/26 04:50:08;;;;;;;18.48;8.52;;;7.40;84.60;;;;;;5026458;28;20025;-75
2021/11/26 04:52:34;;;;;;;16.77;8.23;;;7.40;84.90;;;;;;5023630;28;20031;-75
2021/11/26 04:55:00;;;;;;;20.08;8.50;;;7.40;84.80;;;;;;5021427;28;20468;-75
2021/11/26 04:57:26;;;;;;;21.45;9.32;;;7.50;84.50;;;;;;5021842;28;20033;-74
2021/11/26 04:59:51;;;;;;;19.27;8.52;;;7.50;84.50;;;;;;5027359;28;20041;-74
2021/11/26 05:02:18;;;;;;;17.98;9.07;;;7.40;84.30;;;;;;5025309;28;20077;-75
2021/11/26 05:04:43;;;;;;;22.08;9.02;;;7.50;84.50;;;;;;5022776;28;20037;-74
2021/11/26 05:07:09;;;;;;;25.48;9.10;;;7.40;84.30;;;;;;5022654;28;20025;-74
2021/11/26 05:09:35;;;;;;;19.60;8.23;;;7.30;84.40;;;;;;5021508;28;20091;-74
2021/11/26 05:12:02;;;;;;;22.42;8.52;;;7.20;84.80;;;;;;5030595;28;20543;-74
2021/11/26 05:14:31;;;;;;;19.35;9.25;;;7.10;84.80;;;;;;5025006;28;20124;-74
2021/11/26 05:16:57;;;;;;;18.02;7.90;;;7.20;85.20;;;;;;5019043;28;20068;-74
2021/11/26 05:19:23;;;;;;;17.17;7.30;;;7.10;84.70;;;;;;5017283;28;20025;-74
2021/11/26 05:21:49;;;;;;;17.35;8.15;;;7.10;84.60;;;;;;5022432;28;20516;-73
2021/11/26 05:24:15;;;;;;;19.90;7.90;;;7.20;84.80;;;;;;5023119;28;20438;-74
2021/11/26 05:26:41;;;;;;;19.17;8.80;;;7.10;83.50;;;;;;5019405;28;20545;-74
2021/11/26 05:29:08;;;;;;;20.23;7.22;;;7.10;83.90;;;;;;5024210;28;20033;-73
2021/11/26 05:31:37;;;;;;;21.30;8.55;;;7.10;82.80;;;;;;5013897;28;20044;-74
2021/11/26 05:34:05;;;;;;;15.82;7.55;;;7.10;83.10;;;;;;5023575;28;20748;-73
2021/11/26 05:36:31;;;;;;;18.27;7.47;;;7.20;82.80;;;;;;5020584;28;20337;-74
2021/11/26 05:38:57;;;;;;;13.75;7.15;;;7.20;82.80;;;;;;5019662;28;20034;-74
2021/11/26 05:41:26;;;;;;;18.48;7.30;;;7.20;83.10;;;;;;5018072;28;20034;-74
2021/11/26 05:43:52;;;;;;;17.52;6.93;;;7.30;82.90;;;;;;5018955;28;20040;-74
2021/11/26 05:46:18;;;;;;;19.92;7.18;;;7.30;82.30;;;;;;5027331;28;20450;-74
2021/11/26 05:48:44;;;;;;;17.52;7.15;;;7.20;82.00;;;;;;5020066;28;20392;-74
2021/11/26 05:51:10;;;;;;;18.20;8.48;;;7.20;82.00;;;;;;5020818;28;20035;-74
2021/11/26 05:53:36;;;;;;;19.48;7.22;;;7.10;82.00;;;;;;5015888;28;20092;-74
2021/11/26 05:56:02;;;;;;;18.23;8.05;;;7.10;82.60;;;;;;5019976;28;20051;-73
2021/11/26 05:58:28;;;;;;;19.17;7.50;;;7.10;82.60;;;;;;5027726;28;20091;-73
2021/11/26 06:00:57;;;;;;;18.15;7.13;;;6.90;82.60;;;;;;5022583;28;20145;-73
2021/11/26 06:03:23;;;;;;;14.43;7.07;;;6.80;83.40;;;;;;5017903;28;20036;-73
2021/11/26 06:05:49;;;;;;;23.48;8.93;;;6.80;83.40;;;;;;5015384;28;20034;-73
2021/11/26 06:08:15;;;;;;;19.27;6.57;;;6.80;83.20;;;;;;5020777;28;20021;-74
2021/11/26 06:10:41;;;;;;;17.23;7.15;;;6.80;83.20;;;;;;5020750;28;20401;-74
2021/11/26 06:13:07;;;;;;;16.23;7.78;;;6.80;82.60;;;;;;5020251;28;20026;-74
2021/11/26 06:15:33;;;;;;;15.95;6.88;;;6.70;83.10;;;;;;5023039;28;20393;-74
2021/11/26 06:17:58;;;;;;;24.15;7.97;;;6.70;82.70;;;;;;5017373;28;20037;-73
2021/11/26 06:20:25;;;;;;;17.33;7.00;;;6.80;83.10;;;;;;5024108;28;20108;-74
2021/11/26 06:22:52;;;;;;;19.02;6.93;;;6.80;82.60;;;;;;5020496;28;20033;-74
2021/11/26 06:25:21;;;;;;;19.80;7.22;;;6.90;82.70;;;;;;5019701;28;20021;-74
2021/11/26 06:27:48;;;;;;;15.68;6.82;;;6.90;82.30;;;;;;5014673;28;20034;-74
2021/11/26 06:30:17;;;;;;;16.42;6.65;;;7.00;82.00;;;;;;5017098;28;20069;-75
2021/11/26 06:32:44;;;;;;;13.63;6.50;;;7.00;82.30;;;;;;5021398;28;20493;-74
2021/11/26 06:35:12;;;;;;;16.83;6.68;;;7.00;81.80;;;;;;5021139;28;20026;-74
2021/11/26 06:37:38;;;;;;;18.20;7.10;;;7.00;81.50;;;;;;5017459;28;20045;-74
2021/11/26 06:40:05;;;;;;;17.83;6.93;;;7.10;81.40;;;;;;5020657;28;20496;-73
2021/11/26 06:42:31;;;;;;;13.18;6.35;;;7.10;81.60;;;;;;5026152;28;20134;-74
2021/11/26 06:44:58;;;;;;;15.18;5.70;;;7.10;81.70;;;;;;5021677;28;20136;-74
2021/11/26 06:47:23;;;;;;;15.13;6.28;;;7.10;81.60;;;;;;5022590;28;20029;-74
2021/11/26 06:49:49;;;;;;;17.90;6.50;;;7.20;81.00;;;;;;5016019;28;20685;-74
2021/11/26 06:52:16;;;;;;;18.65;6.07;;;7.20;81.00;;;;;;5015059;28;20032;-73
2021/11/26 06:54:43;;;;;;;14.25;6.22;;;7.10;80.30;;;;;;5020039;28;20049;-74
2021/11/26 06:57:09;;;;;;;19.05;6.45;;;7.00;80.80;;;;;;5021606;28;20029;-74
2021/11/26 06:59:35;;;;;;;14.80;6.07;;;7.00;81.70;;;;;;5020451;28;20140;-74
2021/11/26 07:02:01;;;;;;;23.05;5.80;;;7.00;81.70;;;;;;5020238;28;20573;-74
2021/11/26 07:04:28;;;;;;;15.90;6.25;;;7.00;81.30;;;;;;5018595;28;20021;-74
2021/11/26 07:06:54;;;;;;;18.98;6.75;;;7.00;81.00;;;;;;5027308;28;20033;-74
2021/11/26 07:09:20;;;;;;;19.02;6.15;;;7.00;81.30;;;;;;5020805;28;20080;-75
2021/11/26 07:11:47;;;;;;;13.60;5.82;;;6.90;81.40;;;;;;5016524;28;20033;-75
2021/11/26 07:14:13;;;;;;;20.83;6.43;;;6.90;81.50;;;;;;5017066;28;20440;-75
2021/11/26 07:16:38;;;;;;;19.80;6.57;;;6.90;81.70;;;;;;5015893;28;20029;-74
2021/11/26 07:19:04;;;;;;;15.25;6.10;;;6.90;82.00;;;;;;5022092;28;20034;-74
2021/11/26 07:21:30;;;;;;;14.93;5.95;;;6.90;81.40;;;;;;5017331;28;20041;-74
2021/11/26 07:23:56;;;;;;;12.65;5.88;;;7.00;81.40;;;;;;5016054;28;20457;-74
2021/11/26 07:26:23;;;;;;;17.90;6.72;;;6.90;81.20;;;;;;5021355;28;20026;-74
2021/11/26 07:28:49;;;;;;;12.70;5.43;;;6.80;81.70;;;;;;5025723;28;20040;-74
2021/11/26 07:31:16;;;;;;;20.15;7.28;;;6.80;83.00;;;;;;5020653;28;20033;-74
2021/11/26 07:33:42;;;;;;;19.38;6.10;;;6.90;82.50;;;;;;5017012;28;20041;-74
2021/11/26 07:36:08;;;;;;;16.75;6.82;;;6.90;81.50;;;;;;5031985;28;20038;-75
2021/11/26 07:38:35;;;;;;;18.27;6.63;;;6.90;82.40;;;;;;5011631;28;20160;-74
2021/11/26 07:41:00;;;;;;;17.70;6.47;;;7.00;81.80;;;;;;5022076;28;20041;-76
2021/11/26 07:43:26;;;;;;;17.65;6.55;;;7.00;81.90;;;;;;5020850;28;20033;-75
2021/11/26 07:45:52;;;;;;;17.35;6.88;;;7.00;81.30;;;;;;5016394;28;20065;-72
2021/11/26 07:48:18;;;;;;;19.50;7.68;;;7.10;81.10;;;;;;5023437;28;20037;-74
2021/11/26 07:50:45;;;;;;;18.35;6.72;;;7.10;81.40;;;;;;5023327;28;20532;-74
2021/11/26 07:53:11;;;;;;;16.05;6.72;;;7.20;81.40;;;;;;5029194;28;20129;-73
2021/11/26 07:55:37;;;;;;;19.40;6.60;;;7.20;81.00;;;;;;5021604;28;20059;-74
2021/11/26 07:58:05;;;;;;;19.90;6.78;;;7.20;80.60;;;;;;5018132;28;20034;-74
2021/11/26 08:00:31;;;;;;;15.55;6.90;;;7.30;80.70;;;;;;5019042;28;20090;-74
2021/11/26 08:03:01;;;;;;;16.42;6.90;;;7.30;80.80;;;;;;5022768;28;20804;-75
2021/11/26 08:05:28;;;;;;;13.55;6.80;;;7.50;80.60;;;;;;5021418;28;20769;-75
2021/11/26 08:07:54;;;;;;;17.33;7.55;;;7.50;80.20;;;;;;5018346;28;20098;-74
2021/11/26 08:10:20;;;;;;;17.25;7.30;;;7.60;78.90;;;;;;5019980;28;20782;-75
2021/11/26 08:12:46;;;;;;;15.43;6.68;;;7.70;79.10;;;;;;5015863;28;20092;-73
2021/11/26 08:15:14;;;;;;;13.18;6.97;;;7.80;78.00;;;;;;5017744;28;20029;-73
2021/11/26 08:17:40;;;;;;;18.65;7.03;;;8.00;77.30;;;;;;5019076;28;20033;-73
2021/11/26 08:20:07;;;;;;;17.75;7.32;;;8.00;76.70;;;;;;5018128;28;20048;-74
2021/11/26 08:22:33;;;;;;;17.73;6.75;;;8.10;76.50;;;;;;5014741;28;20489;-72
2021/11/26 08:24:59;;;;;;;16.48;7.47;;;8.20;76.70;;;;;;5013586;28;20022;-72
2021/11/26 08:27:24;;;;;;;17.13;7.53;;;8.30;76.40;;;;;;5021590;28;20041;-72
2021/11/26 08:29:50;;;;;;;19.13;7.75;;;8.40;76.70;;;;;;5018113;28;20034;-74
2021/11/26 08:32:16;;;;;;;16.77;7.53;;;8.50;76.30;;;;;;5018455;28;20113;-71
2021/11/26 08:34:42;;;;;;;17.90;7.95;;;8.60;75.30;;;;;;5018049;28;20112;-71
2021/11/26 08:37:08;;;;;;;21.83;11.15;;;8.60;74.30;;;;;;5019772;28;20779;-72
2021/11/26 08:39:34;;;;;;;18.48;7.93;;;8.60;74.70;;;;;;5016601;28;20501;-68
2021/11/26 08:41:59;;;;;;;18.52;7.50;;;8.60;74.00;;;;;;5013312;28;20913;-71
2021/11/26 08:44:25;;;;;;;25.48;10.05;;;8.60;74.60;;;;;;5009454;28;20100;-71
2021/11/26 08:46:51;;;;;;;14.82;7.57;;;8.70;72.90;;;;;;5016402;28;20033;-71
2021/11/26 08:49:17;;;;;;;36.25;15.30;;;8.60;72.50;;;;;;5018322;28;20032;-71
2021/11/26 08:51:45;;;;;;;22.50;9.15;;;8.60;73.10;;;;;;5015620;28;20053;-71
2021/11/26 08:54:11;;;;;;;19.17;7.40;;;8.60;73.30;;;;;;5023047;28;20666;-71
2021/11/26 08:56:37;;;;;;;16.80;7.63;;;8.50;72.50;;;;;;5023766;28;20030;-71
2021/11/26 08:59:03;;;;;;;16.92;9.50;;;8.50;72.30;;;;;;5015334;28;20041;-73
2021/11/26 09:01:34;;;;;;;17.73;7.43;;;8.40;73.10;;;;;;5018973;28;20088;-73
2021/11/26 09:04:00;;;;;;;19.85;9.23;;;8.30;72.90;;;;;;5021032;28;20654;-70
2021/11/26 09:06:26;;;;;;;29.92;12.82;;;8.20;74.00;;;;;;5012652;28;20026;-69
2021/11/26 09:08:53;;;;;;;19.33;8.20;;;8.20;73.90;;;;;;5022462;28;20036;-71
2021/11/26 09:11:19;;;;;;;18.48;7.72;;;8.10;74.90;;;;;;5018432;28;20026;-71
2021/11/26 09:13:45;;;;;;;18.77;7.82;;;8.20;75.40;;;;;;5023886;28;20069;-71
2021/11/26 09:16:12;;;;;;;15.50;7.47;;;8.50;74.80;;;;;;5018509;28;20038;-71
2021/11/26 09:18:38;;;;;;;22.02;8.55;;;9.10;71.60;;;;;;5017166;28;20057;-70
2021/11/26 09:21:04;;;;;;;23.00;9.93;;;9.40;69.50;;;;;;5010179;28;20772;-70
2021/11/26 09:23:30;;;;;;;23.23;9.48;;;9.30;69.20;;;;;;5022905;28;20033;-71
2021/11/26 09:25:57;;;;;;;25.88;9.45;;;9.20;69.40;;;;;;5021954;28;20056;-71
2021/11/26 09:28:23;;;;;;;18.67;8.10;;;9.00;70.60;;;;;;5020445;28;20033;-71
2021/11/26 09:30:50;;;;;;;17.30;7.70;;;8.80;70.40;;;;;;5016414;28;20103;-70
2021/11/26 09:33:19;;;;;;;15.65;8.05;;;8.70;70.80;;;;;;5020215;28;20047;-71
2021/11/26 09:35:46;;;;;;;16.08;7.32;;;8.60;71.80;;;;;;5023085;28;20385;-71
2021/11/26 09:38:12;;;;;;;16.33;7.68;;;8.70;72.70;;;;;;5017328;28;20088;-71
2021/11/26 09:40:39;;;;;;;16.98;7.88;;;8.80;72.50;;;;;;5030390;28;20570;-74
2021/11/26 09:43:06;;;;;;;22.45;8.10;;;8.80;72.10;;;;;;5017966;28;20119;-73
2021/11/26 09:45:33;;;;;;;20.08;7.47;;;8.90;71.50;;;;;;5022469;28;20640;-70
2021/11/26 09:48:00;;;;;;;20.25;7.85;;;9.00;71.00;;;;;;5024430;28;20080;-68
2021/11/26 09:50:28;;;;;;;20.45;9.23;;;9.00;71.80;;;;;;5020524;28;20034;-69
2021/11/26 09:53:11;;;;;;;26.58;11.50;;;9.00;71.30;;;;;;5029285;28;20774;-69
2021/11/26 09:55:37;;;;;;;15.88;7.78;;;9.10;71.30;;;;;;5017899;28;20065;-69
2021/11/26 09:58:03;;;;;;;15.13;7.70;;;9.10;71.30;;;;;;5012076;28;20068;-69
2021/11/26 10:00:29;;;;;;;16.45;7.60;;;9.20;70.70;;;;;;5016855;28;20068;-69
2021/11/26 10:02:57;;;;;;;21.13;8.20;;;9.20;70.20;;;;;;5019522;28;20029;-69
2021/11/26 10:05:24;;;;;;;18.38;8.05;;;9.10;70.60;;;;;;5016592;28;20025;-69
2021/11/26 10:07:52;;;;;;;17.00;7.60;;;9.10;71.10;;;;;;5019421;28;20321;-69
2021/11/26 10:10:25;;;;;;;20.33;7.53;;;9.10;70.80;;;;;;5021062;28;20540;-69
2021/11/26 10:12:59;;;;;;;16.33;7.55;;;9.10;71.10;;;;;;5017791;28;20037;-69
2021/11/26 10:15:47;;;;;;;17.33;8.02;;;9.10;71.40;;;;;;5015924;28;20081;-69
2021/11/26 10:18:19;;;;;;;24.65;8.43;;;9.10;71.20;;;;;;5016630;28;20651;-69
2021/11/26 10:21:04;;;;;;;14.65;7.15;;;9.00;70.30;;;;;;5011398;28;20120;-69
2021/11/26 10:23:50;;;;;;;15.57;7.68;;;9.00;69.80;;;;;;5014165;28;20446;-69
2021/11/26 10:26:27;;;;;;;18.30;7.60;;;8.90;71.00;;;;;;5018236;28;20022;-69
2021/11/26 10:29:02;;;;;;;14.23;7.47;;;8.90;70.50;;;;;;5018799;28;20044;-69
2021/11/26 10:31:39;;;;;;;14.65;7.40;;;8.80;70.60;;;;;;5009063;28;20045;-69
2021/11/26 10:34:08;;;;;;;19.60;7.88;;;8.80;71.40;;;;;;5018453;28;20540;-69
2021/11/26 10:36:45;;;;;;;14.95;7.25;;;8.70;72.40;;;;;;5019218;28;20756;-73
2021/11/26 10:39:20;;;;;;;14.82;7.43;;;8.80;72.70;;;;;;5019131;28;20046;-71
2021/11/26 10:41:55;;;;;;;16.08;7.50;;;8.80;71.90;;;;;;5019713;28;20049;-72
2021/11/26 10:44:50;;;;;;;20.25;7.15;;;8.90;71.70;;;;;;5019532;28;20072;-72
2021/11/26 10:59:59;;;;;;;15.27;6.68;;;9.00;71.00;;;;;;5018275;28;20140;-73
2021/11/26 11:02:27;;;;;;;14.82;7.13;;;9.00;70.20;;;;;;5019851;28;20560;-77
2021/11/26 11:04:54;;;;;;;12.88;6.90;;;8.90;70.00;;;;;;5019927;28;20034;-76
2021/11/26 11:07:20;;;;;;;15.50;7.53;;;8.80;69.20;;;;;;5009211;28;20032;-74
2021/11/26 11:09:47;;;;;;;16.30;6.32;;;8.90;70.40;;;;;;5000909;28;20513;-74
2021/11/26 11:12:15;;;;;;;12.45;6.05;;;9.00;72.10;;;;;;5018930;28;20448;-74
2021/11/26 11:14:54;;;;;;;14.70;6.78;;;9.20;71.30;;;;;;5002208;28;20117;-72
2021/11/26 11:17:20;;;;;;;13.80;7.05;;;9.30;70.10;;;;;;5010473;28;20034;-72
2021/11/26 11:19:45;;;;;;;14.02;6.43;;;9.50;70.70;;;;;;5016691;28;20029;-72
2021/11/26 11:22:11;;;;;;;15.05;6.97;;;9.60;69.40;;;;;;5019165;28;20029;-71
2021/11/26 11:24:39;;;;;;;12.27;6.07;;;9.60;67.70;;;;;;5007278;28;20685;-71
2021/11/26 11:27:06;;;;;;;16.25;6.97;;;9.60;68.30;;;;;;5016649;28;20022;-72
2021/11/26 11:29:32;;;;;;;14.68;7.07;;;9.70;66.60;;;;;;5018081;28;20029;-71
2021/11/26 11:32:00;;;;;;;16.35;7.00;;;9.70;67.50;;;;;;5020671;28;20152;-71
2021/11/26 11:34:29;;;;;;;17.58;7.18;;;9.70;67.30;;;;;;5034119;28;20072;-71
2021/11/26 11:36:57;;;;;;;15.63;7.07;;;9.70;66.70;;;;;;5019296;28;20048;-71
2021/11/26 11:39:24;;;;;;;18.20;8.70;;;9.70;66.90;;;;;;5026358;28;20044;-71
2021/11/26 11:41:56;;;;;;;20.40;8.57;;;9.60;67.10;;;;;;5003453;28;20069;-71
2021/11/26 11:44:32;;;;;;;17.20;7.75;;;9.60;67.40;;;;;;5020301;28;20033;-72
2021/11/26 11:47:01;;;;;;;15.50;7.13;;;9.60;66.60;;;;;;5012445;28;20446;-72
2021/11/26 11:49:29;;;;;;;16.85;7.47;;;9.50;67.30;;;;;;5016080;28;20030;-71
2021/11/26 11:52:04;;;;;;;17.17;7.50;;;9.50;66.20;;;;;;5020727;28;20102;-72
2021/11/26 11:54:37;;;;;;;18.80;7.10;;;9.30;67.40;;;;;;5018350;28;20448;-72
2021/11/26 11:57:06;;;;;;;16.52;7.80;;;9.20;66.80;;;;;;5012555;28;20044;-72
2021/11/26 11:59:37;;;;;;;13.27;7.35;;;9.20;68.60;;;;;;5015276;28;20030;-71
2021/11/26 12:02:08;;;;;;;13.60;6.90;;;9.20;66.80;;;;;;5032704;28;20052;-71
2021/11/26 12:04:42;;;;;;;19.85;7.15;;;9.20;68.00;;;;;;5017221;28;20037;-71
2021/11/26 12:07:20;;;;;;;13.27;6.97;;;9.20;67.70;;;;;;5020327;28;20028;-72
2021/11/26 12:09:46;;;;;;;18.17;7.82;;;9.20;66.80;;;;;;5009468;28;20037;-70
2021/11/26 12:12:16;;;;;;;13.20;7.50;;;9.20;68.10;;;;;;5007098;28;20021;-72
2021/11/26 12:14:50;;;;;;;17.98;7.43;;;9.20;66.30;;;;;;5018892;28;20456;-69
2021/11/26 12:17:34;;;;;;;17.10;7.25;;;9.10;67.20;;;;;;5021994;28;20477;-69
2021/11/26 12:20:09;;;;;;;16.60;6.65;;;9.20;67.20;;;;;;5015819;28;20055;-69
2021/11/26 12:22:39;;;;;;;16.08;6.47;;;9.20;66.50;;;;;;5015980;28;20044;-69
2021/11/26 12:25:17;;;;;;;16.35;6.40;;;9.20;67.10;;;;;;5019791;28;20021;-69
2021/11/26 12:27:53;;;;;;;16.25;6.18;;;9.20;66.50;;;;;;5024469;28;20079;-71
2021/11/26 12:30:19;;;;;;;14.48;5.85;;;9.20;65.60;;;;;;5024540;28;20079;-71
2021/11/26 12:32:46;;;;;;;11.45;5.70;;;9.20;65.80;;;;;;5016199;28;20045;-70
2021/11/26 12:35:14;;;;;;;13.85;5.95;;;9.20;63.80;;;;;;5017590;28;20052;-70
2021/11/26 12:37:40;;;;;;;13.43;6.43;;;9.20;64.90;;;;;;5023093;28;20481;-73
2021/11/26 12:40:14;;;;;;;14.20;5.90;;;9.10;65.60;;;;;;5014181;28;20028;-73
2021/11/26 12:42:41;;;;;;;13.35;6.38;;;9.10;65.40;;;;;;5020938;28;20845;-72
2021/11/26 12:45:16;;;;;;;10.90;5.72;;;9.10;64.70;;;;;;5020585;28;20064;-71
2021/11/26 12:47:46;;;;;;;13.40;6.13;;;9.00;64.60;;;;;;5022252;28;20125;-71
2021/11/26 12:53:11;;;;;;;12.05;5.57;;;9.00;62.90;;;;;;5021095;28;20041;-72
2021/11/26 12:56:02;;;;;;;11.90;4.95;;;9.00;64.70;;;;;;5035642;28;20439;-73
2021/11/26 12:58:31;;;;;;;9.02;4.28;;;9.00;63.80;;;;;;5034709;28;20077;-72
2021/11/26 13:01:06;;;;;;;9.75;4.65;;;9.10;63.50;;;;;;5020672;28;20487;-72
2021/11/26 13:03:47;;;;;;;9.65;4.93;;;9.00;63.00;;;;;;5020296;28;20034;-72